sensor_id;sensor_type;location;lat;lon;timestamp;pressure;altitude;pressure_sealevel;temperature;humidity
79129;BME280;68529;43.286;23.360;2024-01-27T00:00:39;99796.69;;;4.37;53.99
79129;BME280;68529;43.286;23.360;2024-01-27T00:03:05;99801.03;;;4.33;53.86
79129;BME280;68529;43.286;23.360;2024-01-27T00:05:30;99805.38;;;4.28;54.13
79129;BME280;68529;43.286;23.360;2024-01-27T00:07:55;99798.44;;;3.98;53.69
79129;BME280;68529;43.286;23.360;2024-01-27T00:10:21;99804.47;;;3.78;53.30
79129;BME280;68529;43.286;23.360;2024-01-27T00:12:46;99797.47;;;3.45;53.99
79129;BME280;68529;43.286;23.360;2024-01-27T00:15:12;99793.94;;;3.32;54.50
79129;BME280;68529;43.286;23.360;2024-01-27T00:17:37;99768.84;;;3.18;54.49
79129;BME280;68529;43.286;23.360;2024-01-27T00:20:03;99771.28;;;2.81;55.33
79129;BME280;68529;43.286;23.360;2024-01-27T00:22:28;99760.94;;;2.92;55.29
79129;BME280;68529;43.286;23.360;2024-01-27T00:24:54;99755.78;;;3.07;54.84
79129;BME280;68529;43.286;23.360;2024-01-27T00:27:19;99756.69;;;3.14;54.51
79129;BME280;68529;43.286;23.360;2024-01-27T00:29:44;99747.03;;;2.76;54.62
79129;BME280;68529;43.286;23.360;2024-01-27T00:32:10;99755.72;;;2.83;55.16
79129;BME280;68529;43.286;23.360;2024-01-27T00:34:35;99764.41;;;2.94;54.64
79129;BME280;68529;43.286;23.360;2024-01-27T00:37:00;99759.19;;;2.88;54.86
79129;BME280;68529;43.286;23.360;2024-01-27T00:39:26;99754.03;;;2.97;54.89
79129;BME280;68529;43.286;23.360;2024-01-27T00:41:51;99768.78;;;3.04;54.72
79129;BME280;68529;43.286;23.360;2024-01-27T00:44:17;99762.63;;;2.81;54.43
79129;BME280;68529;43.286;23.360;2024-01-27T00:46:43;99765.91;;;2.53;55.09
79129;BME280;68529;43.286;23.360;2024-01-27T00:49:09;99754.78;;;2.69;55.26
79129;BME280;68529;43.286;23.360;2024-01-27T00:51:34;99754.91;;;2.94;54.75
79129;BME280;68529;43.286;23.360;2024-01-27T00:53:59;99759.28;;;3.14;54.32
79129;BME280;68529;43.286;23.360;2024-01-27T00:56:25;99758.28;;;2.80;54.51
79129;BME280;68529;43.286;23.360;2024-01-27T00:58:50;99766.03;;;2.68;54.50
79129;BME280;68529;43.286;23.360;2024-01-27T01:01:16;99758.28;;;2.75;54.89
79129;BME280;68529;43.286;23.360;2024-01-27T01:03:41;99754.94;;;3.04;54.74
79129;BME280;68529;43.286;23.360;2024-01-27T01:06:06;99761.06;;;3.25;54.11
79129;BME280;68529;43.286;23.360;2024-01-27T01:08:32;99761.06;;;3.18;54.10
79129;BME280;68529;43.286;23.360;2024-01-27T01:10:58;99757.53;;;3.13;53.82
79129;BME280;68529;43.286;23.360;2024-01-27T01:13:23;99752.44;;;3.26;54.30
79129;BME280;68529;43.286;23.360;2024-01-27T01:15:49;99730.75;;;3.21;53.61
79129;BME280;68529;43.286;23.360;2024-01-27T01:18:14;99732.50;;;3.21;53.93
79129;BME280;68529;43.286;23.360;2024-01-27T01:20:39;99734.28;;;3.34;54.02
79129;BME280;68529;43.286;23.360;2024-01-27T01:23:05;99733.41;;;3.32;53.99
79129;BME280;68529;43.286;23.360;2024-01-27T01:25:31;99723.88;;;3.35;53.53
79129;BME280;68529;43.286;23.360;2024-01-27T01:27:56;99723.03;;;3.45;53.24
79129;BME280;68529;43.286;23.360;2024-01-27T01:30:21;99724.78;;;3.48;53.38
79129;BME280;68529;43.286;23.360;2024-01-27T01:32:47;99719.50;;;3.13;54.17
79129;BME280;68529;43.286;23.360;2024-01-27T01:35:12;99723.88;;;3.35;53.42
79129;BME280;68529;43.286;23.360;2024-01-27T01:37:38;99718.69;;;3.49;53.14
79129;BME280;68529;43.286;23.360;2024-01-27T01:40:05;99715.28;;;3.59;53.18
79129;BME280;68529;43.286;23.360;2024-01-27T01:42:32;99705.72;;;3.55;53.10
79129;BME280;68529;43.286;23.360;2024-01-27T01:44:57;99701.41;;;3.69;52.62
79129;BME280;68529;43.286;23.360;2024-01-27T01:47:23;99695.34;;;3.57;52.11
79129;BME280;68529;43.286;23.360;2024-01-27T01:49:49;99691.91;;;3.51;52.69
79129;BME280;68529;43.286;23.360;2024-01-27T01:52:14;99698.81;;;3.69;52.71
79129;BME280;68529;43.286;23.360;2024-01-27T01:54:48;99691.91;;;3.70;51.97
79129;BME280;68529;43.286;23.360;2024-01-27T01:57:13;99697.06;;;3.74;52.38
79129;BME280;68529;43.286;23.360;2024-01-27T01:59:39;99702.28;;;3.88;52.30
79129;BME280;68529;43.286;23.360;2024-01-27T02:02:06;99698.81;;;3.98;51.78
79129;BME280;68529;43.286;23.360;2024-01-27T02:04:41;99683.22;;;3.80;51.71
79129;BME280;68529;43.286;23.360;2024-01-27T02:07:07;99682.34;;;4.00;52.17
79129;BME280;68529;43.286;23.360;2024-01-27T02:09:33;99677.13;;;4.17;51.64
79129;BME280;68529;43.286;23.360;2024-01-27T02:11:58;99677.09;;;4.25;51.59
79129;BME280;68529;43.286;23.360;2024-01-27T02:14:24;99671.06;;;4.18;51.13
79129;BME280;68529;43.286;23.360;2024-01-27T02:16:51;99670.16;;;4.28;51.33
79129;BME280;68529;43.286;23.360;2024-01-27T02:19:17;99664.94;;;4.37;51.02
79129;BME280;68529;43.286;23.360;2024-01-27T02:21:42;99669.28;;;4.43;50.72
79129;BME280;68529;43.286;23.360;2024-01-27T02:24:07;99674.47;;;4.37;50.55
79129;BME280;68529;43.286;23.360;2024-01-27T02:26:33;99672.75;;;4.34;50.56
79129;BME280;68529;43.286;23.360;2024-01-27T02:28:58;99671.00;;;4.39;50.52
79129;BME280;68529;43.286;23.360;2024-01-27T02:31:23;99659.72;;;4.48;50.76
79129;BME280;68529;43.286;23.360;2024-01-27T02:33:49;99657.94;;;4.60;50.88
79129;BME280;68529;43.286;23.360;2024-01-27T02:36:15;99657.03;;;4.64;50.62
79129;BME280;68529;43.286;23.360;2024-01-27T02:38:40;99647.53;;;4.62;50.45
79129;BME280;68529;43.286;23.360;2024-01-27T02:41:06;99644.94;;;4.59;50.57
79129;BME280;68529;43.286;23.360;2024-01-27T02:43:31;99661.44;;;4.55;50.71
79129;BME280;68529;43.286;23.360;2024-01-27T02:45:56;99664.00;;;4.62;50.77
79129;BME280;68529;43.286;23.360;2024-01-27T02:48:22;99659.66;;;4.61;50.85
79129;BME280;68529;43.286;23.360;2024-01-27T02:50:47;99655.31;;;4.63;50.65
79129;BME280;68529;43.286;23.360;2024-01-27T02:53:12;99648.41;;;4.59;50.86
79129;BME280;68529;43.286;23.360;2024-01-27T02:55:38;99634.47;;;4.66;51.05
79129;BME280;68529;43.286;23.360;2024-01-27T02:58:03;99624.03;;;4.76;51.46
79129;BME280;68529;43.286;23.360;2024-01-27T03:00:29;99619.66;;;4.81;51.79
79129;BME280;68529;43.286;23.360;2024-01-27T03:02:55;99624.06;;;4.69;52.25
79129;BME280;68529;43.286;23.360;2024-01-27T03:05:23;99627.53;;;4.70;52.38
79129;BME280;68529;43.286;23.360;2024-01-27T03:07:48;99628.38;;;4.69;52.68
79129;BME280;68529;43.286;23.360;2024-01-27T03:10:14;99632.81;;;4.56;53.26
79129;BME280;68529;43.286;23.360;2024-01-27T03:12:39;99626.75;;;4.57;53.50
79129;BME280;68529;43.286;23.360;2024-01-27T03:15:05;99627.63;;;4.55;53.62
79129;BME280;68529;43.286;23.360;2024-01-27T03:17:30;99631.94;;;4.57;53.58
79129;BME280;68529;43.286;23.360;2024-01-27T03:19:56;99624.13;;;4.59;53.51
79129;BME280;68529;43.286;23.360;2024-01-27T03:22:21;99625.03;;;4.55;53.74
79129;BME280;68529;43.286;23.360;2024-01-27T03:24:46;99619.81;;;4.53;53.64
79129;BME280;68529;43.286;23.360;2024-01-27T03:27:12;99606.75;;;4.62;53.66
79129;BME280;68529;43.286;23.360;2024-01-27T03:29:37;99598.00;;;4.79;54.04
79129;BME280;68529;43.286;23.360;2024-01-27T03:32:03;99595.31;;;4.92;54.17
79129;BME280;68529;43.286;23.360;2024-01-27T03:34:28;99592.69;;;4.97;54.15
79129;BME280;68529;43.286;23.360;2024-01-27T03:36:54;99581.44;;;4.92;53.68
79129;BME280;68529;43.286;23.360;2024-01-27T03:39:19;99582.25;;;5.00;53.42
79129;BME280;68529;43.286;23.360;2024-01-27T03:41:44;99581.34;;;5.04;51.35
79129;BME280;68529;43.286;23.360;2024-01-27T03:44:10;99567.38;;;5.17;51.57
79129;BME280;68529;43.286;23.360;2024-01-27T03:46:35;99563.88;;;5.21;50.97
79129;BME280;68529;43.286;23.360;2024-01-27T03:49:04;99563.66;;;5.50;50.44
79129;BME280;68529;43.286;23.360;2024-01-27T03:51:29;99568.69;;;5.66;51.36
79129;BME280;68529;43.286;23.360;2024-01-27T03:53:55;99567.78;;;5.67;52.06
79129;BME280;68529;43.286;23.360;2024-01-27T03:56:20;99559.19;;;5.59;52.66
79129;BME280;68529;43.286;23.360;2024-01-27T03:58:46;99559.25;;;5.53;53.29
79129;BME280;68529;43.286;23.360;2024-01-27T04:01:11;99566.25;;;5.50;54.07
79129;BME280;68529;43.286;23.360;2024-01-27T04:03:36;99554.94;;;5.52;54.47
79129;BME280;68529;43.286;23.360;2024-01-27T04:06:02;99554.91;;;5.55;54.95
79129;BME280;68529;43.286;23.360;2024-01-27T04:08:32;99550.50;;;5.60;55.43
79129;BME280;68529;43.286;23.360;2024-01-27T04:10:57;99547.91;;;5.59;56.10
79129;BME280;68529;43.286;23.360;2024-01-27T04:13:23;99550.53;;;5.57;56.61
79129;BME280;68529;43.286;23.360;2024-01-27T04:15:48;99545.34;;;5.53;56.89
79129;BME280;68529;43.286;23.360;2024-01-27T04:18:16;99542.84;;;5.44;57.32
79129;BME280;68529;43.286;23.360;2024-01-27T04:20:41;99545.44;;;5.45;57.71
79129;BME280;68529;43.286;23.360;2024-01-27T04:23:07;99554.94;;;5.48;58.33
79129;BME280;68529;43.286;23.360;2024-01-27T04:25:32;99561.00;;;5.51;58.62
79129;BME280;68529;43.286;23.360;2024-01-27T04:27:57;99556.63;;;5.58;58.61
79129;BME280;68529;43.286;23.360;2024-01-27T04:30:23;99556.56;;;5.62;59.06
79129;BME280;68529;43.286;23.360;2024-01-27T04:32:48;99560.97;;;5.56;59.58
79129;BME280;68529;43.286;23.360;2024-01-27T04:35:17;99568.75;;;5.60;59.63
79129;BME280;68529;43.286;23.360;2024-01-27T04:37:42;99572.16;;;5.68;59.83
79129;BME280;68529;43.286;23.360;2024-01-27T04:40:10;99567.78;;;5.70;60.38
79129;BME280;68529;43.286;23.360;2024-01-27T04:42:37;99572.97;;;5.70;60.84
79129;BME280;68529;43.286;23.360;2024-01-27T04:45:04;99579.09;;;5.69;61.05
79129;BME280;68529;43.286;23.360;2024-01-27T04:47:30;99584.31;;;5.66;61.68
79129;BME280;68529;43.286;23.360;2024-01-27T04:49:55;99573.88;;;5.68;61.88
79129;BME280;68529;43.286;23.360;2024-01-27T04:52:22;99573.00;;;5.69;62.32
79129;BME280;68529;43.286;23.360;2024-01-27T04:54:47;99569.53;;;5.68;62.38
79129;BME280;68529;43.286;23.360;2024-01-27T04:57:13;99571.31;;;5.66;62.77
79129;BME280;68529;43.286;23.360;2024-01-27T04:59:38;99566.06;;;5.68;62.69
79129;BME280;68529;43.286;23.360;2024-01-27T05:02:03;99576.41;;;5.75;62.46
79129;BME280;68529;43.286;23.360;2024-01-27T05:04:29;99574.66;;;5.77;62.76
79129;BME280;68529;43.286;23.360;2024-01-27T05:06:54;99572.91;;;5.79;63.57
79129;BME280;68529;43.286;23.360;2024-01-27T05:09:20;99583.31;;;5.79;63.45
79129;BME280;68529;43.286;23.360;2024-01-27T05:11:45;99572.06;;;5.76;63.72
79129;BME280;68529;43.286;23.360;2024-01-27T05:14:11;99576.41;;;5.77;64.13
79129;BME280;68529;43.286;23.360;2024-01-27T05:16:36;99572.94;;;5.76;64.36
79129;BME280;68529;43.286;23.360;2024-01-27T05:19:02;99565.06;;;5.78;64.74
79129;BME280;68529;43.286;23.360;2024-01-27T05:21:28;99565.91;;;5.81;65.18
79129;BME280;68529;43.286;23.360;2024-01-27T05:23:53;99564.16;;;5.83;64.86
79129;BME280;68529;43.286;23.360;2024-01-27T05:26:20;99566.78;;;5.85;65.09
79129;BME280;68529;43.286;23.360;2024-01-27T05:28:45;99574.59;;;5.88;65.98
79129;BME280;68529;43.286;23.360;2024-01-27T05:31:10;99578.91;;;5.89;66.66
79129;BME280;68529;43.286;23.360;2024-01-27T05:33:36;99588.50;;;5.82;67.17
79129;BME280;68529;43.286;23.360;2024-01-27T05:36:02;99600.78;;;5.71;67.85
79129;BME280;68529;43.286;23.360;2024-01-27T05:38:27;99592.91;;;5.77;67.33
79129;BME280;68529;43.286;23.360;2024-01-27T05:40:55;99600.66;;;5.82;67.29
79129;BME280;68529;43.286;23.360;2024-01-27T05:43:20;99598.03;;;5.88;67.08
79129;BME280;68529;43.286;23.360;2024-01-27T05:45:46;99598.00;;;5.93;66.79
79129;BME280;68529;43.286;23.360;2024-01-27T05:48:11;99592.75;;;5.96;67.55
79129;BME280;68529;43.286;23.360;2024-01-27T05:50:37;99599.84;;;5.75;68.47
79129;BME280;68529;43.286;23.360;2024-01-27T05:53:02;99610.25;;;5.80;68.12
79129;BME280;68529;43.286;23.360;2024-01-27T05:55:28;99618.88;;;5.83;68.18
79129;BME280;68529;43.286;23.360;2024-01-27T05:57:53;99630.19;;;5.89;68.23
79129;BME280;68529;43.286;23.360;2024-01-27T06:00:20;99637.06;;;5.97;68.21
79129;BME280;68529;43.286;23.360;2024-01-27T06:02:46;99644.91;;;5.93;68.42
79129;BME280;68529;43.286;23.360;2024-01-27T06:05:11;99635.28;;;6.01;68.20
79129;BME280;68529;43.286;23.360;2024-01-27T06:07:38;99640.34;;;6.14;67.39
79129;BME280;68529;43.286;23.360;2024-01-27T06:10:06;99642.91;;;6.19;67.99
79129;BME280;68529;43.286;23.360;2024-01-27T06:12:31;99642.84;;;6.26;67.92
79129;BME280;68529;43.286;23.360;2024-01-27T06:14:57;99633.25;;;6.30;67.85
79129;BME280;68529;43.286;23.360;2024-01-27T06:17:23;99635.94;;;6.21;68.29
79129;BME280;68529;43.286;23.360;2024-01-27T06:19:49;99633.41;;;6.12;68.66
79129;BME280;68529;43.286;23.360;2024-01-27T06:22:14;99637.69;;;6.20;68.21
79129;BME280;68529;43.286;23.360;2024-01-27T06:24:43;99626.28;;;6.29;67.84
79129;BME280;68529;43.286;23.360;2024-01-27T06:27:09;99617.56;;;6.33;68.22
79129;BME280;68529;43.286;23.360;2024-01-27T06:29:34;99614.81;;;6.43;67.65
79129;BME280;68529;43.286;23.360;2024-01-27T06:31:59;99612.09;;;6.51;67.29
79129;BME280;68529;43.286;23.360;2024-01-27T06:34:25;99597.28;;;6.55;67.39
79129;BME280;68529;43.286;23.360;2024-01-27T06:36:50;99584.34;;;6.45;67.85
79129;BME280;68529;43.286;23.360;2024-01-27T06:39:16;99576.66;;;6.36;68.35
79129;BME280;68529;43.286;23.360;2024-01-27T06:41:41;99585.34;;;6.34;68.57
79129;BME280;68529;43.286;23.360;2024-01-27T06:44:06;99592.28;;;6.38;68.28
79129;BME280;68529;43.286;23.360;2024-01-27T06:46:32;99615.69;;;6.44;67.95
79129;BME280;68529;43.286;23.360;2024-01-27T06:48:58;99635.66;;;6.47;67.92
79129;BME280;68529;43.286;23.360;2024-01-27T06:51:23;99634.78;;;6.48;68.09
79129;BME280;68529;43.286;23.360;2024-01-27T06:53:49;99633.03;;;6.45;68.33
79129;BME280;68529;43.286;23.360;2024-01-27T06:56:14;99642.66;;;6.43;68.63
79129;BME280;68529;43.286;23.360;2024-01-27T06:58:40;99656.41;;;6.57;68.61
79129;BME280;68529;43.286;23.360;2024-01-27T07:01:07;99676.28;;;6.67;67.86
79129;BME280;68529;43.286;23.360;2024-01-27T07:03:32;99688.31;;;6.80;66.74
79129;BME280;68529;43.286;23.360;2024-01-27T07:05:58;99690.38;;;7.21;63.21
79129;BME280;68529;43.286;23.360;2024-01-27T07:08:26;99696.16;;;7.43;62.18
79129;BME280;68529;43.286;23.360;2024-01-27T07:10:52;99691.53;;;7.61;61.20
79129;BME280;68529;43.286;23.360;2024-01-27T07:13:17;99693.13;;;7.72;60.63
79129;BME280;68529;43.286;23.360;2024-01-27T07:15:42;99718.28;;;7.79;60.89
79129;BME280;68529;43.286;23.360;2024-01-27T07:18:08;99732.16;;;7.84;60.78
79129;BME280;68529;43.286;23.360;2024-01-27T07:20:34;99727.72;;;7.89;59.64
79129;BME280;68529;43.286;23.360;2024-01-27T07:23:00;99741.44;;;8.01;57.38
79129;BME280;68529;43.286;23.360;2024-01-27T07:25:26;99736.03;;;8.13;56.11
79129;BME280;68529;43.286;23.360;2024-01-27T07:27:53;99730.59;;;8.24;55.80
79129;BME280;68529;43.286;23.360;2024-01-27T07:46:11;99810.84;;;8.77;51.96
79129;BME280;68529;43.286;23.360;2024-01-27T07:48:36;99801.38;;;8.70;51.91
79129;BME280;68529;43.286;23.360;2024-01-27T07:51:02;99788.28;;;8.70;51.88
79129;BME280;68529;43.286;23.360;2024-01-27T07:53:27;99753.53;;;8.62;51.09
79129;BME280;68529;43.286;23.360;2024-01-27T07:55:53;99754.19;;;8.73;51.87
79129;BME280;68529;43.286;23.360;2024-01-27T07:58:19;99773.25;;;8.79;51.07
79129;BME280;68529;43.286;23.360;2024-01-27T08:00:45;99776.72;;;8.82;51.60
79129;BME280;68529;43.286;23.360;2024-01-27T08:03:10;99776.63;;;8.86;51.57
79129;BME280;68529;43.286;23.360;2024-01-27T08:05:35;99759.03;;;8.93;51.42
79129;BME280;68529;43.286;23.360;2024-01-27T08:08:01;99757.19;;;8.98;50.93
79129;BME280;68529;43.286;23.360;2024-01-27T08:10:26;99748.50;;;8.96;51.32
79129;BME280;68529;43.286;23.360;2024-01-27T08:12:52;99759.75;;;8.99;51.04
79129;BME280;68529;43.286;23.360;2024-01-27T08:15:17;99764.94;;;9.02;50.14
79129;BME280;68529;43.286;23.360;2024-01-27T08:17:43;99763.03;;;9.10;50.03
79129;BME280;68529;43.286;23.360;2024-01-27T08:20:08;99744.63;;;9.13;50.43
79129;BME280;68529;43.286;23.360;2024-01-27T08:22:34;99764.72;;;9.13;49.55
79129;BME280;68529;43.286;23.360;2024-01-27T08:24:59;99760.47;;;9.07;48.36
79129;BME280;68529;43.286;23.360;2024-01-27T08:27:25;99778.69;;;9.13;49.47
79129;BME280;68529;43.286;23.360;2024-01-27T08:29:50;99780.38;;;9.17;48.99
79129;BME280;68529;43.286;23.360;2024-01-27T08:32:16;99767.09;;;9.25;47.72
79129;BME280;68529;43.286;23.360;2024-01-27T08:34:41;99769.72;;;9.26;47.90
79129;BME280;68529;43.286;23.360;2024-01-27T08:37:15;99777.53;;;9.28;48.15
79129;BME280;68529;43.286;23.360;2024-01-27T08:39:41;99769.66;;;9.29;48.24
79129;BME280;68529;43.286;23.360;2024-01-27T08:42:07;99753.84;;;9.32;47.84
79129;BME280;68529;43.286;23.360;2024-01-27T08:44:32;99754.41;;;9.47;47.93
79129;BME280;68529;43.286;23.360;2024-01-27T08:46:57;99751.78;;;9.47;48.05
79129;BME280;68529;43.286;23.360;2024-01-27T08:49:23;99763.13;;;9.49;47.97
79129;BME280;68529;43.286;23.360;2024-01-27T08:51:48;99766.63;;;9.48;48.32
79129;BME280;68529;43.286;23.360;2024-01-27T08:54:14;99762.19;;;9.51;48.54
79129;BME280;68529;43.286;23.360;2024-01-27T08:56:40;99755.81;;;9.61;48.15
79129;BME280;68529;43.286;23.360;2024-01-27T08:59:05;99752.00;;;9.76;48.23
79129;BME280;68529;43.286;23.360;2024-01-27T09:01:31;99746.28;;;9.95;47.95
79129;BME280;68529;43.286;23.360;2024-01-27T09:03:56;99731.28;;;10.02;47.56
79129;BME280;68529;43.286;23.360;2024-01-27T09:06:22;99741.34;;;10.20;46.16
79129;BME280;68529;43.286;23.360;2024-01-27T09:08:47;99737.50;;;10.33;46.93
79129;BME280;68529;43.286;23.360;2024-01-27T09:11:12;99756.28;;;10.17;47.61
79129;BME280;68529;43.286;23.360;2024-01-27T09:13:38;99747.84;;;10.03;48.03
79129;BME280;68529;43.286;23.360;2024-01-27T09:16:03;99746.22;;;9.99;47.31
79129;BME280;68529;43.286;23.360;2024-01-27T09:18:29;99738.63;;;9.88;47.83
79129;BME280;68529;43.286;23.360;2024-01-27T09:20:54;99727.19;;;9.90;48.32
79129;BME280;68529;43.286;23.360;2024-01-27T09:23:19;99740.31;;;9.89;47.98
79129;BME280;68529;43.286;23.360;2024-01-27T09:25:45;99761.25;;;9.92;48.00
79129;BME280;68529;43.286;23.360;2024-01-27T09:28:10;99743.00;;;9.86;47.90
79129;BME280;68529;43.286;23.360;2024-01-27T09:30:37;99763.38;;;9.75;48.31
79129;BME280;68529;43.286;23.360;2024-01-27T09:33:03;99756.56;;;9.68;48.52
79129;BME280;68529;43.286;23.360;2024-01-27T09:35:28;99758.28;;;9.69;48.19
79129;BME280;68529;43.286;23.360;2024-01-27T09:37:53;99750.41;;;9.69;48.63
79129;BME280;68529;43.286;23.360;2024-01-27T09:40:19;99771.38;;;9.70;48.24
79129;BME280;68529;43.286;23.360;2024-01-27T09:42:51;99769.66;;;10.41;47.16
79129;BME280;68529;43.286;23.360;2024-01-27T09:45:22;99778.44;;;11.37;46.06
79129;BME280;68529;43.286;23.360;2024-01-27T09:47:48;99766.69;;;11.49;45.90
79129;BME280;68529;43.286;23.360;2024-01-27T09:50:14;99776.53;;;11.11;46.07
79129;BME280;68529;43.286;23.360;2024-01-27T09:52:40;99775.69;;;10.80;46.71
79129;BME280;68529;43.286;23.360;2024-01-27T09:55:06;99802.50;;;10.59;46.53
79129;BME280;68529;43.286;23.360;2024-01-27T09:57:32;99792.69;;;10.32;47.26
79129;BME280;68529;43.286;23.360;2024-01-27T09:59:58;99795.66;;;10.18;47.53
79129;BME280;68529;43.286;23.360;2024-01-27T10:02:24;99802.66;;;10.18;47.61
79129;BME280;68529;43.286;23.360;2024-01-27T10:04:50;99796.78;;;10.42;47.47
79129;BME280;68529;43.286;23.360;2024-01-27T10:07:16;99796.84;;;11.37;45.54
79129;BME280;68529;43.286;23.360;2024-01-27T10:09:42;99800.44;;;12.21;44.68
79129;BME280;68529;43.286;23.360;2024-01-27T10:12:09;99805.50;;;11.72;45.13
79129;BME280;68529;43.286;23.360;2024-01-27T10:14:42;99812.94;;;11.56;45.19
79129;BME280;68529;43.286;23.360;2024-01-27T10:17:11;99811.50;;;11.15;45.45
79129;BME280;68529;43.286;23.360;2024-01-27T10:19:36;99803.84;;;11.06;45.96
79129;BME280;68529;43.286;23.360;2024-01-27T10:22:02;99818.41;;;10.87;46.22
79129;BME280;68529;43.286;23.360;2024-01-27T10:24:29;99818.63;;;10.78;45.72
79129;BME280;68529;43.286;23.360;2024-01-27T10:27:01;99807.47;;;10.70;45.91
79129;BME280;68529;43.286;23.360;2024-01-27T10:29:26;99814.59;;;10.66;46.10
79129;BME280;68529;43.286;23.360;2024-01-27T10:31:52;99819.03;;;10.63;46.54
79129;BME280;68529;43.286;23.360;2024-01-27T10:34:20;99841.09;;;10.56;46.32
79129;BME280;68529;43.286;23.360;2024-01-27T10:36:45;99842.09;;;10.50;46.29
79129;BME280;68529;43.286;23.360;2024-01-27T10:39:21;99830.06;;;10.41;46.72
79129;BME280;68529;43.286;23.360;2024-01-27T10:41:48;99831.19;;;10.33;46.60
79129;BME280;68529;43.286;23.360;2024-01-27T10:44:15;99832.13;;;10.29;46.89
79129;BME280;68529;43.286;23.360;2024-01-27T10:46:45;99828.69;;;10.27;46.73
79129;BME280;68529;43.286;23.360;2024-01-27T10:49:17;99842.75;;;10.24;46.82
79129;BME280;68529;43.286;23.360;2024-01-27T10:51:45;99841.97;;;10.19;46.82
79129;BME280;68529;43.286;23.360;2024-01-27T10:54:23;99843.00;;;10.12;46.90
79129;BME280;68529;43.286;23.360;2024-01-27T10:56:51;99856.91;;;10.17;47.05
79129;BME280;68529;43.286;23.360;2024-01-27T10:59:19;99858.66;;;10.18;47.06
79129;BME280;68529;43.286;23.360;2024-01-27T11:01:46;99866.53;;;10.18;47.06
79129;BME280;68529;43.286;23.360;2024-01-27T11:04:12;99872.72;;;10.14;47.04
79129;BME280;68529;43.286;23.360;2024-01-27T11:06:39;99864.78;;;10.19;46.85
79129;BME280;68529;43.286;23.360;2024-01-27T11:09:05;99865.59;;;10.19;47.00
79129;BME280;68529;43.286;23.360;2024-01-27T11:11:34;99869.09;;;10.21;46.97
79129;BME280;68529;43.286;23.360;2024-01-27T11:14:01;99864.78;;;10.19;46.76
79129;BME280;68529;43.286;23.360;2024-01-27T11:16:26;99866.59;;;10.15;46.96
79129;BME280;68529;43.286;23.360;2024-01-27T11:18:53;99874.50;;;10.12;46.62
79129;BME280;68529;43.286;23.360;2024-01-27T11:21:19;99880.59;;;10.14;46.47
79129;BME280;68529;43.286;23.360;2024-01-27T11:23:45;99882.22;;;10.21;46.32
79129;BME280;68529;43.286;23.360;2024-01-27T11:26:20;99882.97;;;10.25;46.40
79129;BME280;68529;43.286;23.360;2024-01-27T11:28:47;99890.03;;;10.24;46.41
79129;BME280;68529;43.286;23.360;2024-01-27T11:31:17;99900.34;;;10.30;46.28
79129;BME280;68529;43.286;23.360;2024-01-27T11:33:44;99889.78;;;10.33;46.22
79129;BME280;68529;43.286;23.360;2024-01-27T11:36:19;99908.94;;;10.38;46.42
79129;BME280;68529;43.286;23.360;2024-01-27T11:38:46;99901.06;;;10.38;46.56
79129;BME280;68529;43.286;23.360;2024-01-27T11:41:11;99902.53;;;10.50;46.38
79129;BME280;68529;43.286;23.360;2024-01-27T11:43:36;99912.69;;;10.64;45.95
79129;BME280;68529;43.286;23.360;2024-01-27T11:46:02;99911.72;;;11.98;43.81
79129;BME280;68529;43.286;23.360;2024-01-27T11:48:27;99918.75;;;12.82;42.94
79129;BME280;68529;43.286;23.360;2024-01-27T11:51:06;99915.47;;;13.53;41.42
79129;BME280;68529;43.286;23.360;2024-01-27T11:53:33;99915.84;;;14.14;40.18
79129;BME280;68529;43.286;23.360;2024-01-27T11:55:58;99913.28;;;14.57;39.40
79129;BME280;68529;43.286;23.360;2024-01-27T11:58:25;99910.72;;;14.97;38.14
79129;BME280;68529;43.286;23.360;2024-01-27T12:00:51;99923.28;;;14.92;37.84
79129;BME280;68529;43.286;23.360;2024-01-27T12:03:17;99934.72;;;13.80;39.00
79129;BME280;68529;43.286;23.360;2024-01-27T12:05:43;99930.28;;;13.06;38.18
79129;BME280;68529;43.286;23.360;2024-01-27T12:08:08;99938.84;;;13.13;38.53
79129;BME280;68529;43.286;23.360;2024-01-27T12:10:34;99922.84;;;12.65;39.70
79129;BME280;68529;43.286;23.360;2024-01-27T12:13:00;99951.50;;;13.02;39.36
79129;BME280;68529;43.286;23.360;2024-01-27T12:15:25;99959.59;;;12.69;39.78
79129;BME280;68529;43.286;23.360;2024-01-27T12:17:52;99954.16;;;12.18;40.41
79129;BME280;68529;43.286;23.360;2024-01-27T12:20:18;99976.81;;;11.95;40.87
79129;BME280;68529;43.286;23.360;2024-01-27T12:22:43;99963.16;;;11.81;40.68
79129;BME280;68529;43.286;23.360;2024-01-27T12:25:12;99979.22;;;11.70;41.34
79129;BME280;68529;43.286;23.360;2024-01-27T12:27:40;99975.81;;;11.66;41.99
79129;BME280;68529;43.286;23.360;2024-01-27T12:30:06;99980.31;;;11.94;41.59
79129;BME280;68529;43.286;23.360;2024-01-27T12:32:33;99994.47;;;12.20;41.11
79129;BME280;68529;43.286;23.360;2024-01-27T12:34:58;99984.94;;;12.73;39.52
79129;BME280;68529;43.286;23.360;2024-01-27T12:37:25;99985.38;;;13.15;38.94
79129;BME280;68529;43.286;23.360;2024-01-27T12:39:51;99998.38;;;13.48;38.17
79129;BME280;68529;43.286;23.360;2024-01-27T12:42:16;99996.75;;;13.17;38.48
79129;BME280;68529;43.286;23.360;2024-01-27T12:44:43;99993.53;;;13.08;36.91
79129;BME280;68529;43.286;23.360;2024-01-27T12:47:09;100001.69;;;13.00;37.85
79129;BME280;68529;43.286;23.360;2024-01-27T12:49:35;100010.28;;;13.33;37.02
79129;BME280;68529;43.286;23.360;2024-01-27T12:52:02;100016.63;;;13.54;36.95
79129;BME280;68529;43.286;23.360;2024-01-27T12:54:27;100021.47;;;13.90;36.80
79129;BME280;68529;43.286;23.360;2024-01-27T12:56:53;100013.59;;;14.14;35.94
79129;BME280;68529;43.286;23.360;2024-01-27T12:59:18;100027.97;;;14.07;34.73
79129;BME280;68529;43.286;23.360;2024-01-27T13:01:44;100028.06;;;14.04;35.45
79129;BME280;68529;43.286;23.360;2024-01-27T13:04:09;100043.25;;;13.97;35.69
79129;BME280;68529;43.286;23.360;2024-01-27T13:06:34;100038.88;;;13.71;35.58